EDDM/MUC METAR and TAF weather

Enter ICAO airport designator
Station Type Date Time Source
EDDM METAR 2020/07/11 03:50 UTC NOAA

EDDM 110350Z 28004KT 9999 -RA SCT008 SCT033 16/14 Q1019 RERA TEMPO RA BKN008


Station Type Date Time Source
EDDM Decoded METAR 2020/07/11 03:50 UTC NOAA

Munchen, Germany (EDDM) 48-21N 011-47E
Jul 10, 2020 - 11:50 PM EDT / 2020.07.11 0350 UTC
Wind: from the W (280 degrees) at 5 MPH (4 KT):0
Visibility: greater than 7 mile(s):0
Sky conditions: partly cloudy
Weather: light rain
Temperature: 60 F (16 C)
Dew Point: 57 F (14 C)
Relative Humidity: 87%
Pressure (altimeter): 30.09 in. Hg (1019 hPa)
ob: EDDM 110350Z 28004KT 9999 -RA SCT008 SCT033 16/14 Q1019 RERA TEMPO RA BKN008
cycle: 4

Station Type Date Time Source
EDDM TAF 2020/07/10 21:14 UTC NOAA

TAF
AMD EDDM 102102Z 1021/1124 VRB03KT 9999 FEW009 BKN025
TEMPO 1021/1101 28007KT SHRA BKN030CB
TEMPO 1101/1109 4500 RA BKN009
TEMPO 1101/1117 33006KT PROB30
TEMPO 1112/1117 SHRA BKN025TCU

Example: see airport list